sensor_id;sensor_type;location;lat;lon;timestamp;temperature;humidity
13589;DHT22;6865;52.552;13.434;2022-07-29T00:01:02;15.70;99.90
13589;DHT22;6865;52.552;13.434;2022-07-29T00:03:29;15.70;99.90
13589;DHT22;6865;52.552;13.434;2022-07-29T00:05:55;15.70;99.90
13589;DHT22;6865;52.552;13.434;2022-07-29T00:08:22;15.60;99.90
13589;DHT22;6865;52.552;13.434;2022-07-29T00:10:50;15.60;99.90
13589;DHT22;6865;52.552;13.434;2022-07-29T00:13:17;15.20;99.90
13589;DHT22;6865;52.552;13.434;2022-07-29T00:15:57;15.60;99.90
13589;DHT22;6865;52.552;13.434;2022-07-29T00:18:30;15.50;99.90
13589;DHT22;6865;52.552;13.434;2022-07-29T00:20:57;15.50;99.90
13589;DHT22;6865;52.552;13.434;2022-07-29T00:23:23;15.20;99.90
13589;DHT22;6865;52.552;13.434;2022-07-29T00:25:50;15.50;99.90
13589;DHT22;6865;52.552;13.434;2022-07-29T00:28:16;15.50;99.90
13589;DHT22;6865;52.552;13.434;2022-07-29T00:30:43;15.40;99.90
13589;DHT22;6865;52.552;13.434;2022-07-29T00:33:10;15.40;99.90
13589;DHT22;6865;52.552;13.434;2022-07-29T00:35:36;15.40;99.90
13589;DHT22;6865;52.552;13.434;2022-07-29T00:38:14;15.40;99.90
13589;DHT22;6865;52.552;13.434;2022-07-29T00:40:42;15.30;99.90
13589;DHT22;6865;52.552;13.434;2022-07-29T00:43:10;15.30;99.90
13589;DHT22;6865;52.552;13.434;2022-07-29T00:45:37;15.30;99.90
13589;DHT22;6865;52.552;13.434;2022-07-29T00:48:04;15.30;99.90
13589;DHT22;6865;52.552;13.434;2022-07-29T00:50:32;15.20;99.90
13589;DHT22;6865;52.552;13.434;2022-07-29T00:52:59;15.10;99.90
13589;DHT22;6865;52.552;13.434;2022-07-29T00:55:25;15.10;99.90
13589;DHT22;6865;52.552;13.434;2022-07-29T00:57:52;15.20;99.90
13589;DHT22;6865;52.552;13.434;2022-07-29T01:00:22;15.10;99.90
13589;DHT22;6865;52.552;13.434;2022-07-29T01:02:50;15.10;99.90
13589;DHT22;6865;52.552;13.434;2022-07-29T01:05:19;15.00;99.90
13589;DHT22;6865;52.552;13.434;2022-07-29T01:07:47;15.00;99.90
13589;DHT22;6865;52.552;13.434;2022-07-29T01:10:15;15.00;99.90
13589;DHT22;6865;52.552;13.434;2022-07-29T01:12:44;15.00;99.90
13589;DHT22;6865;52.552;13.434;2022-07-29T01:15:12;15.00;99.90
13589;DHT22;6865;52.552;13.434;2022-07-29T01:17:46;15.00;99.90
13589;DHT22;6865;52.552;13.434;2022-07-29T01:20:54;15.00;99.90
13589;DHT22;6865;52.552;13.434;2022-07-29T01:26:34;15.10;99.90
13589;DHT22;6865;52.552;13.434;2022-07-29T01:29:09;15.00;99.90
13589;DHT22;6865;52.552;13.434;2022-07-29T01:31:51;15.00;99.90
13589;DHT22;6865;52.552;13.434;2022-07-29T01:34:47;15.00;99.90
13589;DHT22;6865;52.552;13.434;2022-07-29T01:37:20;15.00;99.90
13589;DHT22;6865;52.552;13.434;2022-07-29T01:39:50;14.90;99.90
13589;DHT22;6865;52.552;13.434;2022-07-29T01:42:34;14.90;99.90
13589;DHT22;6865;52.552;13.434;2022-07-29T01:48:21;14.90;99.90
13589;DHT22;6865;52.552;13.434;2022-07-29T01:50:51;14.80;99.90
13589;DHT22;6865;52.552;13.434;2022-07-29T01:53:31;14.80;99.90
13589;DHT22;6865;52.552;13.434;2022-07-29T01:56:04;14.80;99.90
13589;DHT22;6865;52.552;13.434;2022-07-29T01:58:33;14.70;99.90
13589;DHT22;6865;52.552;13.434;2022-07-29T02:01:02;14.70;99.90
13589;DHT22;6865;52.552;13.434;2022-07-29T02:03:30;14.70;99.90
13589;DHT22;6865;52.552;13.434;2022-07-29T02:05:58;14.60;99.90
13589;DHT22;6865;52.552;13.434;2022-07-29T02:08:26;14.50;99.90
13589;DHT22;6865;52.552;13.434;2022-07-29T02:10:55;14.50;99.90
13589;DHT22;6865;52.552;13.434;2022-07-29T02:13:25;14.50;99.90
13589;DHT22;6865;52.552;13.434;2022-07-29T02:15:53;14.40;99.90
13589;DHT22;6865;52.552;13.434;2022-07-29T02:18:22;14.40;99.90
13589;DHT22;6865;52.552;13.434;2022-07-29T02:20:53;14.40;99.90
13589;DHT22;6865;52.552;13.434;2022-07-29T02:23:23;14.40;99.90
13589;DHT22;6865;52.552;13.434;2022-07-29T02:25:53;14.30;99.90
13589;DHT22;6865;52.552;13.434;2022-07-29T02:28:22;14.30;99.90
13589;DHT22;6865;52.552;13.434;2022-07-29T02:30:52;14.30;99.90
13589;DHT22;6865;52.552;13.434;2022-07-29T02:33:20;14.30;99.90
13589;DHT22;6865;52.552;13.434;2022-07-29T02:35:48;14.30;99.90
13589;DHT22;6865;52.552;13.434;2022-07-29T02:38:16;14.20;99.90
13589;DHT22;6865;52.552;13.434;2022-07-29T02:41:08;14.20;99.90
13589;DHT22;6865;52.552;13.434;2022-07-29T02:43:35;14.30;99.90
13589;DHT22;6865;52.552;13.434;2022-07-29T02:46:05;14.30;99.90
13589;DHT22;6865;52.552;13.434;2022-07-29T02:49:31;14.30;99.90
13589;DHT22;6865;52.552;13.434;2022-07-29T02:52:03;14.30;99.90
13589;DHT22;6865;52.552;13.434;2022-07-29T02:54:47;14.30;99.90
13589;DHT22;6865;52.552;13.434;2022-07-29T02:57:33;14.30;99.90
13589;DHT22;6865;52.552;13.434;2022-07-29T03:00:21;14.40;99.90
13589;DHT22;6865;52.552;13.434;2022-07-29T03:02:52;14.50;99.90
13589;DHT22;6865;52.552;13.434;2022-07-29T03:05:20;14.50;99.90
13589;DHT22;6865;52.552;13.434;2022-07-29T03:07:52;14.50;99.90
13589;DHT22;6865;52.552;13.434;2022-07-29T03:10:20;14.50;99.90
13589;DHT22;6865;52.552;13.434;2022-07-29T03:12:48;14.60;99.90
13589;DHT22;6865;52.552;13.434;2022-07-29T03:15:15;14.60;99.90
13589;DHT22;6865;52.552;13.434;2022-07-29T03:17:42;14.60;99.90
13589;DHT22;6865;52.552;13.434;2022-07-29T03:20:10;14.60;99.90
13589;DHT22;6865;52.552;13.434;2022-07-29T03:22:43;14.70;99.90
13589;DHT22;6865;52.552;13.434;2022-07-29T03:25:11;14.70;99.90
13589;DHT22;6865;52.552;13.434;2022-07-29T03:27:39;14.70;99.90
13589;DHT22;6865;52.552;13.434;2022-07-29T03:30:07;14.70;99.90
13589;DHT22;6865;52.552;13.434;2022-07-29T03:32:34;14.70;99.90
13589;DHT22;6865;52.552;13.434;2022-07-29T03:35:01;14.70;99.90
13589;DHT22;6865;52.552;13.434;2022-07-29T03:37:29;14.70;99.90
13589;DHT22;6865;52.552;13.434;2022-07-29T03:39:58;14.60;99.90
13589;DHT22;6865;52.552;13.434;2022-07-29T03:42:28;14.70;99.90
13589;DHT22;6865;52.552;13.434;2022-07-29T03:45:02;14.70;99.90
13589;DHT22;6865;52.552;13.434;2022-07-29T03:47:30;14.80;99.90
13589;DHT22;6865;52.552;13.434;2022-07-29T03:50:17;14.80;99.90
13589;DHT22;6865;52.552;13.434;2022-07-29T03:52:46;14.80;99.90
13589;DHT22;6865;52.552;13.434;2022-07-29T03:55:14;14.80;99.90
13589;DHT22;6865;52.552;13.434;2022-07-29T03:57:41;14.80;99.90
13589;DHT22;6865;52.552;13.434;2022-07-29T04:00:09;14.80;99.90
13589;DHT22;6865;52.552;13.434;2022-07-29T04:02:36;14.80;99.90
13589;DHT22;6865;52.552;13.434;2022-07-29T04:05:04;14.80;99.90
13589;DHT22;6865;52.552;13.434;2022-07-29T04:07:31;14.90;99.90
13589;DHT22;6865;52.552;13.434;2022-07-29T04:09:57;14.90;99.90
13589;DHT22;6865;52.552;13.434;2022-07-29T04:12:24;14.60;99.90
13589;DHT22;6865;52.552;13.434;2022-07-29T04:14:51;14.90;99.90
13589;DHT22;6865;52.552;13.434;2022-07-29T04:17:17;14.90;99.90
13589;DHT22;6865;52.552;13.434;2022-07-29T04:19:44;15.00;99.90
13589;DHT22;6865;52.552;13.434;2022-07-29T04:22:11;15.00;99.90
13589;DHT22;6865;52.552;13.434;2022-07-29T04:24:38;15.10;99.90
13589;DHT22;6865;52.552;13.434;2022-07-29T04:27:09;15.10;99.90
13589;DHT22;6865;52.552;13.434;2022-07-29T04:29:36;15.10;99.90
13589;DHT22;6865;52.552;13.434;2022-07-29T04:32:22;15.20;99.90
13589;DHT22;6865;52.552;13.434;2022-07-29T04:34:49;15.20;99.90
13589;DHT22;6865;52.552;13.434;2022-07-29T04:37:15;15.20;99.90
13589;DHT22;6865;52.552;13.434;2022-07-29T04:39:42;15.20;99.90
13589;DHT22;6865;52.552;13.434;2022-07-29T04:42:09;15.30;99.90
13589;DHT22;6865;52.552;13.434;2022-07-29T04:44:35;15.40;99.90
13589;DHT22;6865;52.552;13.434;2022-07-29T04:47:07;15.40;99.90
13589;DHT22;6865;52.552;13.434;2022-07-29T04:49:34;15.50;99.90
13589;DHT22;6865;52.552;13.434;2022-07-29T04:52:00;15.50;99.90
13589;DHT22;6865;52.552;13.434;2022-07-29T04:54:27;15.50;99.90
13589;DHT22;6865;52.552;13.434;2022-07-29T04:56:54;15.30;99.90
13589;DHT22;6865;52.552;13.434;2022-07-29T04:59:20;15.60;99.90
13589;DHT22;6865;52.552;13.434;2022-07-29T05:01:47;15.60;99.90
13589;DHT22;6865;52.552;13.434;2022-07-29T05:04:14;15.70;99.90
13589;DHT22;6865;52.552;13.434;2022-07-29T05:06:41;15.70;99.90
13589;DHT22;6865;52.552;13.434;2022-07-29T05:09:07;15.70;99.90
13589;DHT22;6865;52.552;13.434;2022-07-29T05:11:34;15.80;99.90
13589;DHT22;6865;52.552;13.434;2022-07-29T05:14:01;15.90;99.90
13589;DHT22;6865;52.552;13.434;2022-07-29T05:16:28;15.90;99.90
13589;DHT22;6865;52.552;13.434;2022-07-29T05:18:55;16.00;99.90
13589;DHT22;6865;52.552;13.434;2022-07-29T05:21:21;16.20;99.90
13589;DHT22;6865;52.552;13.434;2022-07-29T05:23:48;16.30;99.90
13589;DHT22;6865;52.552;13.434;2022-07-29T05:26:15;16.40;99.90
13589;DHT22;6865;52.552;13.434;2022-07-29T05:28:41;16.60;99.90
13589;DHT22;6865;52.552;13.434;2022-07-29T05:31:08;16.80;99.90
13589;DHT22;6865;52.552;13.434;2022-07-29T05:33:34;17.00;99.90
13589;DHT22;6865;52.552;13.434;2022-07-29T05:36:04;17.10;99.90
13589;DHT22;6865;52.552;13.434;2022-07-29T05:38:34;17.30;99.90
13589;DHT22;6865;52.552;13.434;2022-07-29T05:41:00;17.10;99.90
13589;DHT22;6865;52.552;13.434;2022-07-29T05:43:28;17.20;99.90
13589;DHT22;6865;52.552;13.434;2022-07-29T05:45:55;17.30;99.90
13589;DHT22;6865;52.552;13.434;2022-07-29T05:48:22;17.20;99.90
13589;DHT22;6865;52.552;13.434;2022-07-29T05:50:49;17.20;99.90
13589;DHT22;6865;52.552;13.434;2022-07-29T05:53:15;17.20;99.90
13589;DHT22;6865;52.552;13.434;2022-07-29T05:55:45;17.20;99.90
13589;DHT22;6865;52.552;13.434;2022-07-29T05:58:12;17.30;99.90
13589;DHT22;6865;52.552;13.434;2022-07-29T06:00:39;17.30;99.90
13589;DHT22;6865;52.552;13.434;2022-07-29T06:03:06;17.30;99.90
13589;DHT22;6865;52.552;13.434;2022-07-29T06:05:33;17.40;99.90
13589;DHT22;6865;52.552;13.434;2022-07-29T06:08:00;17.60;99.90
13589;DHT22;6865;52.552;13.434;2022-07-29T06:10:27;17.70;99.90
13589;DHT22;6865;52.552;13.434;2022-07-29T06:12:53;17.80;99.90
13589;DHT22;6865;52.552;13.434;2022-07-29T06:15:20;18.00;99.90
13589;DHT22;6865;52.552;13.434;2022-07-29T06:17:47;18.10;99.90
13589;DHT22;6865;52.552;13.434;2022-07-29T06:20:29;18.20;99.90
13589;DHT22;6865;52.552;13.434;2022-07-29T06:22:58;18.50;99.90
13589;DHT22;6865;52.552;13.434;2022-07-29T06:25:24;18.60;99.90
13589;DHT22;6865;52.552;13.434;2022-07-29T06:27:51;18.80;99.90
13589;DHT22;6865;52.552;13.434;2022-07-29T06:30:18;19.00;99.90
13589;DHT22;6865;52.552;13.434;2022-07-29T06:32:45;19.30;99.90
13589;DHT22;6865;52.552;13.434;2022-07-29T06:35:11;19.50;99.90
13589;DHT22;6865;52.552;13.434;2022-07-29T06:37:58;19.70;99.30
13589;DHT22;6865;52.552;13.434;2022-07-29T06:40:25;19.70;98.80
13589;DHT22;6865;52.552;13.434;2022-07-29T06:43:11;19.80;98.60
13589;DHT22;6865;52.552;13.434;2022-07-29T06:45:37;19.90;98.40
13589;DHT22;6865;52.552;13.434;2022-07-29T06:48:08;19.80;98.00
13589;DHT22;6865;52.552;13.434;2022-07-29T06:50:35;19.70;98.20
13589;DHT22;6865;52.552;13.434;2022-07-29T06:53:02;19.70;98.10
13589;DHT22;6865;52.552;13.434;2022-07-29T06:55:28;19.80;97.80
13589;DHT22;6865;52.552;13.434;2022-07-29T06:57:55;19.80;97.80
13589;DHT22;6865;52.552;13.434;2022-07-29T07:00:22;19.90;97.40
13589;DHT22;6865;52.552;13.434;2022-07-29T07:02:48;20.00;97.20
13589;DHT22;6865;52.552;13.434;2022-07-29T07:05:15;20.00;97.20
13589;DHT22;6865;52.552;13.434;2022-07-29T07:07:42;20.10;97.00
13589;DHT22;6865;52.552;13.434;2022-07-29T07:10:08;20.20;97.00
13589;DHT22;6865;52.552;13.434;2022-07-29T07:12:35;20.30;96.40
13589;DHT22;6865;52.552;13.434;2022-07-29T07:15:02;20.50;96.10
13589;DHT22;6865;52.552;13.434;2022-07-29T07:17:29;20.70;95.60
13589;DHT22;6865;52.552;13.434;2022-07-29T07:19:56;20.80;95.50
13589;DHT22;6865;52.552;13.434;2022-07-29T07:22:22;20.80;95.50
13589;DHT22;6865;52.552;13.434;2022-07-29T07:24:49;20.90;95.50
13589;DHT22;6865;52.552;13.434;2022-07-29T07:27:15;21.00;94.90
13589;DHT22;6865;52.552;13.434;2022-07-29T07:29:42;21.20;94.60
13589;DHT22;6865;52.552;13.434;2022-07-29T07:32:10;21.20;94.10
13589;DHT22;6865;52.552;13.434;2022-07-29T07:34:36;21.20;94.40
13589;DHT22;6865;52.552;13.434;2022-07-29T07:37:05;21.40;94.10
13589;DHT22;6865;52.552;13.434;2022-07-29T07:39:31;21.40;93.20
13589;DHT22;6865;52.552;13.434;2022-07-29T07:41:58;21.40;93.50
13589;DHT22;6865;52.552;13.434;2022-07-29T07:44:25;21.50;93.50
13589;DHT22;6865;52.552;13.434;2022-07-29T07:46:52;21.50;93.10
13589;DHT22;6865;52.552;13.434;2022-07-29T07:49:20;21.70;93.40
13589;DHT22;6865;52.552;13.434;2022-07-29T07:51:47;21.80;92.80
13589;DHT22;6865;52.552;13.434;2022-07-29T07:54:16;22.00;91.60
13589;DHT22;6865;52.552;13.434;2022-07-29T07:56:46;22.10;91.40
13589;DHT22;6865;52.552;13.434;2022-07-29T07:59:18;22.20;91.10
13589;DHT22;6865;52.552;13.434;2022-07-29T08:01:45;21.80;90.10
13589;DHT22;6865;52.552;13.434;2022-07-29T08:04:22;22.80;90.10
13589;DHT22;6865;52.552;13.434;2022-07-29T08:06:53;23.50;87.70
13589;DHT22;6865;52.552;13.434;2022-07-29T08:09:24;24.00;83.90
13589;DHT22;6865;52.552;13.434;2022-07-29T08:11:57;24.10;82.30
13589;DHT22;6865;52.552;13.434;2022-07-29T08:14:24;24.00;81.80
13589;DHT22;6865;52.552;13.434;2022-07-29T08:16:50;23.90;82.20
13589;DHT22;6865;52.552;13.434;2022-07-29T08:19:18;23.80;81.90
13589;DHT22;6865;52.552;13.434;2022-07-29T08:21:44;23.70;81.40
13589;DHT22;6865;52.552;13.434;2022-07-29T08:24:11;23.60;80.60
13589;DHT22;6865;52.552;13.434;2022-07-29T08:26:56;23.50;81.20
13589;DHT22;6865;52.552;13.434;2022-07-29T08:29:23;23.50;80.10
13589;DHT22;6865;52.552;13.434;2022-07-29T08:31:49;23.50;79.90
13589;DHT22;6865;52.552;13.434;2022-07-29T08:34:17;23.50;80.20
13589;DHT22;6865;52.552;13.434;2022-07-29T08:36:43;23.50;80.10
13589;DHT22;6865;52.552;13.434;2022-07-29T08:39:16;23.60;80.50
13589;DHT22;6865;52.552;13.434;2022-07-29T08:41:42;23.80;79.80
13589;DHT22;6865;52.552;13.434;2022-07-29T08:44:23;23.90;78.20
13589;DHT22;6865;52.552;13.434;2022-07-29T08:46:56;24.10;78.60
13589;DHT22;6865;52.552;13.434;2022-07-29T08:49:23;24.20;77.00
13589;DHT22;6865;52.552;13.434;2022-07-29T08:51:50;24.20;75.60
13589;DHT22;6865;52.552;13.434;2022-07-29T08:54:18;24.30;75.00
13589;DHT22;6865;52.552;13.434;2022-07-29T08:56:48;24.50;73.60
13589;DHT22;6865;52.552;13.434;2022-07-29T08:59:19;24.60;73.70
13589;DHT22;6865;52.552;13.434;2022-07-29T09:01:48;24.70;73.40
13589;DHT22;6865;52.552;13.434;2022-07-29T09:04:20;24.70;73.70
13589;DHT22;6865;52.552;13.434;2022-07-29T09:06:49;24.60;72.90
13589;DHT22;6865;52.552;13.434;2022-07-29T09:09:17;24.50;71.60
13589;DHT22;6865;52.552;13.434;2022-07-29T09:11:44;24.40;71.70
13589;DHT22;6865;52.552;13.434;2022-07-29T09:14:12;24.30;72.10
13589;DHT22;6865;52.552;13.434;2022-07-29T09:16:57;24.20;71.80
13589;DHT22;6865;52.552;13.434;2022-07-29T09:19:31;24.30;72.40
13589;DHT22;6865;52.552;13.434;2022-07-29T09:21:59;24.40;72.40
13589;DHT22;6865;52.552;13.434;2022-07-29T09:24:41;24.60;71.70
13589;DHT22;6865;52.552;13.434;2022-07-29T09:27:26;24.70;69.80
13589;DHT22;6865;52.552;13.434;2022-07-29T09:30:30;24.80;69.90
13589;DHT22;6865;52.552;13.434;2022-07-29T09:32:58;24.90;69.60
13589;DHT22;6865;52.552;13.434;2022-07-29T09:35:28;25.00;68.80
13589;DHT22;6865;52.552;13.434;2022-07-29T09:37:55;25.00;67.20
13589;DHT22;6865;52.552;13.434;2022-07-29T09:40:25;25.00;67.70
13589;DHT22;6865;52.552;13.434;2022-07-29T09:42:52;25.00;66.70
13589;DHT22;6865;52.552;13.434;2022-07-29T09:45:32;25.00;67.60
13589;DHT22;6865;52.552;13.434;2022-07-29T09:48:12;25.10;67.30
13589;DHT22;6865;52.552;13.434;2022-07-29T09:50:41;25.20;67.30
13589;DHT22;6865;52.552;13.434;2022-07-29T09:53:08;25.00;65.60
13589;DHT22;6865;52.552;13.434;2022-07-29T09:55:51;25.50;65.50
13589;DHT22;6865;52.552;13.434;2022-07-29T09:58:19;25.60;65.40
13589;DHT22;6865;52.552;13.434;2022-07-29T10:00:48;25.70;64.90
13589;DHT22;6865;52.552;13.434;2022-07-29T10:03:16;25.60;62.80
13589;DHT22;6865;52.552;13.434;2022-07-29T10:05:44;25.40;62.60
13589;DHT22;6865;52.552;13.434;2022-07-29T10:08:12;25.30;63.10
13589;DHT22;6865;52.552;13.434;2022-07-29T10:10:42;25.40;63.60
13589;DHT22;6865;52.552;13.434;2022-07-29T10:13:11;25.60;63.90
13589;DHT22;6865;52.552;13.434;2022-07-29T10:15:43;25.80;63.20
13589;DHT22;6865;52.552;13.434;2022-07-29T10:18:12;25.80;62.70
13589;DHT22;6865;52.552;13.434;2022-07-29T10:20:39;25.90;61.30
13589;DHT22;6865;52.552;13.434;2022-07-29T10:23:06;26.00;61.10
13589;DHT22;6865;52.552;13.434;2022-07-29T10:25:33;26.00;58.20
13589;DHT22;6865;52.552;13.434;2022-07-29T10:28:00;25.90;58.40
13589;DHT22;6865;52.552;13.434;2022-07-29T10:30:27;26.00;58.50
13589;DHT22;6865;52.552;13.434;2022-07-29T10:38:42;26.20;59.50
13589;DHT22;6865;52.552;13.434;2022-07-29T10:44:14;26.10;57.70
13589;DHT22;6865;52.552;13.434;2022-07-29T10:46:45;25.90;58.70
13589;DHT22;6865;52.552;13.434;2022-07-29T10:49:17;25.90;58.40
13589;DHT22;6865;52.552;13.434;2022-07-29T10:52:05;25.80;58.80
13589;DHT22;6865;52.552;13.434;2022-07-29T10:54:42;26.10;58.10
13589;DHT22;6865;52.552;13.434;2022-07-29T10:57:16;26.30;58.10
13589;DHT22;6865;52.552;13.434;2022-07-29T10:59:44;26.40;57.90
13589;DHT22;6865;52.552;13.434;2022-07-29T11:05:13;26.70;57.20
13589;DHT22;6865;52.552;13.434;2022-07-29T11:10:50;26.60;57.20
13589;DHT22;6865;52.552;13.434;2022-07-29T11:13:46;26.60;57.20
13589;DHT22;6865;52.552;13.434;2022-07-29T11:16:15;26.50;57.30
13589;DHT22;6865;52.552;13.434;2022-07-29T11:21:38;26.60;57.50
13589;DHT22;6865;52.552;13.434;2022-07-29T11:27:12;26.60;56.80
13589;DHT22;6865;52.552;13.434;2022-07-29T11:29:56;26.60;56.60
13589;DHT22;6865;52.552;13.434;2022-07-29T11:32:44;26.70;57.40
13589;DHT22;6865;52.552;13.434;2022-07-29T11:35:18;26.80;57.20
13589;DHT22;6865;52.552;13.434;2022-07-29T11:38:23;26.80;57.10
13589;DHT22;6865;52.552;13.434;2022-07-29T11:41:25;27.00;57.10
13589;DHT22;6865;52.552;13.434;2022-07-29T11:43:57;26.90;57.60
13589;DHT22;6865;52.552;13.434;2022-07-29T11:46:50;27.00;58.00
13589;DHT22;6865;52.552;13.434;2022-07-29T11:49:24;27.10;57.60
13589;DHT22;6865;52.552;13.434;2022-07-29T11:51:58;27.10;57.90
13589;DHT22;6865;52.552;13.434;2022-07-29T11:54:33;27.30;57.90
13589;DHT22;6865;52.552;13.434;2022-07-29T11:57:20;27.30;57.90
13589;DHT22;6865;52.552;13.434;2022-07-29T12:00:06;27.60;57.90
13589;DHT22;6865;52.552;13.434;2022-07-29T12:02:39;27.60;57.80
13589;DHT22;6865;52.552;13.434;2022-07-29T12:05:09;27.50;57.90
13589;DHT22;6865;52.552;13.434;2022-07-29T12:07:40;27.60;58.40
13589;DHT22;6865;52.552;13.434;2022-07-29T12:10:12;27.50;58.80
13589;DHT22;6865;52.552;13.434;2022-07-29T12:12:55;27.40;59.30
13589;DHT22;6865;52.552;13.434;2022-07-29T12:15:22;27.40;59.60
13589;DHT22;6865;52.552;13.434;2022-07-29T12:18:12;27.40;59.90
13589;DHT22;6865;52.552;13.434;2022-07-29T12:20:39;27.50;59.50
13589;DHT22;6865;52.552;13.434;2022-07-29T12:23:07;27.50;59.90
13589;DHT22;6865;52.552;13.434;2022-07-29T12:25:35;27.60;60.00
13589;DHT22;6865;52.552;13.434;2022-07-29T12:28:23;27.60;60.60
13589;DHT22;6865;52.552;13.434;2022-07-29T12:30:53;27.40;60.60
13589;DHT22;6865;52.552;13.434;2022-07-29T12:33:28;27.50;61.30
13589;DHT22;6865;52.552;13.434;2022-07-29T12:35:57;27.60;61.60
13589;DHT22;6865;52.552;13.434;2022-07-29T12:38:35;27.60;61.50
13589;DHT22;6865;52.552;13.434;2022-07-29T12:41:02;27.60;61.30
13589;DHT22;6865;52.552;13.434;2022-07-29T12:43:31;27.60;61.70
13589;DHT22;6865;52.552;13.434;2022-07-29T12:45:58;27.50;61.80
13589;DHT22;6865;52.552;13.434;2022-07-29T12:48:39;27.70;61.10
13589;DHT22;6865;52.552;13.434;2022-07-29T12:51:07;27.70;61.50
13589;DHT22;6865;52.552;13.434;2022-07-29T12:53:35;27.70;61.10
13589;DHT22;6865;52.552;13.434;2022-07-29T12:56:03;27.60;61.50
13589;DHT22;6865;52.552;13.434;2022-07-29T12:58:50;27.50;61.70
13589;DHT22;6865;52.552;13.434;2022-07-29T13:01:18;27.30;61.50
13589;DHT22;6865;52.552;13.434;2022-07-29T13:03:59;27.20;62.30
13589;DHT22;6865;52.552;13.434;2022-07-29T13:06:31;27.10;62.20
13589;DHT22;6865;52.552;13.434;2022-07-29T13:09:04;27.10;62.30
13589;DHT22;6865;52.552;13.434;2022-07-29T13:11:36;27.20;62.80
13589;DHT22;6865;52.552;13.434;2022-07-29T13:14:04;27.40;62.20
13589;DHT22;6865;52.552;13.434;2022-07-29T13:16:32;27.50;61.60
13589;DHT22;6865;52.552;13.434;2022-07-29T13:19:07;27.50;61.30
13589;DHT22;6865;52.552;13.434;2022-07-29T13:21:34;27.10;61.20
13589;DHT22;6865;52.552;13.434;2022-07-29T13:24:01;27.10;62.30
13589;DHT22;6865;52.552;13.434;2022-07-29T13:26:27;27.20;62.30
13589;DHT22;6865;52.552;13.434;2022-07-29T13:28:54;27.30;62.40
13589;DHT22;6865;52.552;13.434;2022-07-29T13:31:21;27.50;62.40
13589;DHT22;6865;52.552;13.434;2022-07-29T13:33:48;27.70;61.40
13589;DHT22;6865;52.552;13.434;2022-07-29T13:36:15;27.70;60.60
13589;DHT22;6865;52.552;13.434;2022-07-29T13:38:42;27.70;60.90
13589;DHT22;6865;52.552;13.434;2022-07-29T13:41:08;27.30;60.60
13589;DHT22;6865;52.552;13.434;2022-07-29T13:43:36;27.30;61.00
13589;DHT22;6865;52.552;13.434;2022-07-29T13:46:02;27.30;61.00
13589;DHT22;6865;52.552;13.434;2022-07-29T13:48:29;27.30;61.30
13589;DHT22;6865;52.552;13.434;2022-07-29T13:50:56;27.20;61.60
13589;DHT22;6865;52.552;13.434;2022-07-29T13:53:23;27.10;62.00
13589;DHT22;6865;52.552;13.434;2022-07-29T13:55:52;27.20;61.50
13589;DHT22;6865;52.552;13.434;2022-07-29T13:58:20;27.40;61.50
13589;DHT22;6865;52.552;13.434;2022-07-29T14:00:46;27.60;61.30
13589;DHT22;6865;52.552;13.434;2022-07-29T14:03:13;27.50;60.40
13589;DHT22;6865;52.552;13.434;2022-07-29T14:05:40;27.90;59.90
13589;DHT22;6865;52.552;13.434;2022-07-29T14:08:06;28.00;59.90
13589;DHT22;6865;52.552;13.434;2022-07-29T14:10:33;28.10;59.30
13589;DHT22;6865;52.552;13.434;2022-07-29T14:13:00;28.20;59.30
13589;DHT22;6865;52.552;13.434;2022-07-29T14:15:27;28.30;59.50
13589;DHT22;6865;52.552;13.434;2022-07-29T14:17:54;28.30;59.00
13589;DHT22;6865;52.552;13.434;2022-07-29T14:20:20;28.30;59.20
13589;DHT22;6865;52.552;13.434;2022-07-29T14:22:47;28.40;59.60
13589;DHT22;6865;52.552;13.434;2022-07-29T14:25:15;28.40;59.60
13589;DHT22;6865;52.552;13.434;2022-07-29T14:27:43;28.60;59.50
13589;DHT22;6865;52.552;13.434;2022-07-29T14:30:10;28.70;59.10
13589;DHT22;6865;52.552;13.434;2022-07-29T14:32:37;28.90;59.00
13589;DHT22;6865;52.552;13.434;2022-07-29T14:35:05;29.00;58.60
13589;DHT22;6865;52.552;13.434;2022-07-29T14:37:31;28.80;58.70
13589;DHT22;6865;52.552;13.434;2022-07-29T14:40:06;28.70;58.50
13589;DHT22;6865;52.552;13.434;2022-07-29T14:42:33;28.60;59.00
13589;DHT22;6865;52.552;13.434;2022-07-29T14:44:59;28.30;59.00
13589;DHT22;6865;52.552;13.434;2022-07-29T14:47:26;28.10;58.80
13589;DHT22;6865;52.552;13.434;2022-07-29T14:49:53;28.00;59.10
13589;DHT22;6865;52.552;13.434;2022-07-29T14:52:19;27.90;58.80
13589;DHT22;6865;52.552;13.434;2022-07-29T14:54:46;27.90;59.70
13589;DHT22;6865;52.552;13.434;2022-07-29T14:57:13;28.00;58.90
13589;DHT22;6865;52.552;13.434;2022-07-29T14:59:39;28.20;59.40
13589;DHT22;6865;52.552;13.434;2022-07-29T15:02:06;28.20;58.00
13589;DHT22;6865;52.552;13.434;2022-07-29T15:04:33;28.40;58.10
13589;DHT22;6865;52.552;13.434;2022-07-29T15:07:00;28.60;57.70
13589;DHT22;6865;52.552;13.434;2022-07-29T15:09:26;28.70;57.60
13589;DHT22;6865;52.552;13.434;2022-07-29T15:11:53;30.90;59.10
13589;DHT22;6865;52.552;13.434;2022-07-29T15:14:20;28.70;57.30
13589;DHT22;6865;52.552;13.434;2022-07-29T15:16:46;28.60;57.20
13589;DHT22;6865;52.552;13.434;2022-07-29T15:19:14;28.50;57.00
13589;DHT22;6865;52.552;13.434;2022-07-29T15:21:40;28.30;57.00
13589;DHT22;6865;52.552;13.434;2022-07-29T15:24:15;28.40;57.20
13589;DHT22;6865;52.552;13.434;2022-07-29T15:26:42;28.40;57.50
13589;DHT22;6865;52.552;13.434;2022-07-29T15:29:09;28.30;57.60
13589;DHT22;6865;52.552;13.434;2022-07-29T15:31:36;28.20;57.70
13589;DHT22;6865;52.552;13.434;2022-07-29T15:34:03;28.10;57.40
13589;DHT22;6865;52.552;13.434;2022-07-29T15:36:32;28.00;57.50
13589;DHT22;6865;52.552;13.434;2022-07-29T15:39:18;27.90;57.70
13589;DHT22;6865;52.552;13.434;2022-07-29T15:41:45;27.80;58.10
13589;DHT22;6865;52.552;13.434;2022-07-29T15:44:12;27.80;57.90
13589;DHT22;6865;52.552;13.434;2022-07-29T15:46:39;27.70;58.10
13589;DHT22;6865;52.552;13.434;2022-07-29T15:49:25;27.50;58.20
13589;DHT22;6865;52.552;13.434;2022-07-29T15:52:18;27.40;58.40
13589;DHT22;6865;52.552;13.434;2022-07-29T15:54:52;27.30;59.00
13589;DHT22;6865;52.552;13.434;2022-07-29T15:57:19;27.20;58.90
13589;DHT22;6865;52.552;13.434;2022-07-29T15:59:46;27.10;59.00
13589;DHT22;6865;52.552;13.434;2022-07-29T16:02:12;27.10;58.70
13589;DHT22;6865;52.552;13.434;2022-07-29T16:04:39;27.00;59.20
13589;DHT22;6865;52.552;13.434;2022-07-29T16:07:06;27.00;59.40
13589;DHT22;6865;52.552;13.434;2022-07-29T16:09:33;27.00;59.50
13589;DHT22;6865;52.552;13.434;2022-07-29T16:12:00;27.00;59.30
13589;DHT22;6865;52.552;13.434;2022-07-29T16:14:27;27.00;59.40
13589;DHT22;6865;52.552;13.434;2022-07-29T16:16:54;27.00;59.20